Tiempo atmosférico en la estación meteorológica de Tarifa, Cádiz (32 m.)



Fecha
DESCASC
Temp. máxima en grados centígrados (hora)
DESCASC
Temp. mínima en grados centígrados (hora)
DESCASC
Temp. media en grados centígrados
DESCASC
Racha de viento máxima en m/sg (hora)
DESCASC
Velocidad máxima media en intervalos de 10 minutos(hora)
DESCASC
Precipitaciones diarias en mm
DESCASC
Precipitaciones de 00:00 a 06:00 en mm
DESCASC
Precipitaciones de 06:00 a 12:00 en mm
DESCASC
Precipitaciones de 12:00 a 18:00 en mm
DESCASC
Precipitaciones de 18:00 a 24:00 en mm
DESCASC
18-08-2019 23.4 (17:20) 19.3 (05:40) 21.3 10.28 (14:10) 7.5 (14:10) 0 0 0 0 0
17-08-2019 27.1 (15:50) 19.9 (04:30) 23.5 15 (11:50) 10.83 (11:50) 0 0 0 0 0
16-08-2019 25.7 (15:20) 19.9 (04:30) 22.8 15 (15:00) 10.56 (14:50) 0 0 0 0 0
15-08-2019 26.8 (12:40) 20.2 (00:00) 23.5 15 (18:10) 10.56 (18:30) 0 0 0 0 0
14-08-2019 26.9 (13:00) 20.7 (00:00) 23.8 16.11 (05:30) 10.83 (07:40) 0 0 0 0 0
13-08-2019 27.6 (15:10) 15.6 (00:00) 21.6 13.33 (18:30) 9.17 (16:30) 0 0 0 0 0
12-08-2019 23 (17:40) 18.7 (00:00) 20.9 12.78 (14:10) 7.5 (16:50) 0 0 0 0 0
11-08-2019 22.8 (16:20) 18.3 (00:00) 20.5 13.89 (16:20) 9.17 (16:00) 0 0 0 0 0
10-08-2019 23.7 (14:50) 19.4 (00:00) 21.6 11.39 (19:30) 6.94 (19:20) 0 0 0 0 0
09-08-2019 23.1 (15:10) 19.6 (00:00) 21.4 12.78 (13:00) 8.33 (13:40) 0 0 0 0 0
08-08-2019 23.5 (17:20) 19 (00:00) 21.3 10.83 (18:40) 6.67 (19:40) 0 0 0 0 0
07-08-2019 23.5 (15:50) 19.5 (00:00) 21.5 11.11 (17:50) 6.94 (17:50) 0 0 0 0 0
06-08-2019 23.6 (15:50) 17.9 (00:00) 20.8 10 (11:50) 7.22 (11:50) 0 0 0 0 0
05-08-2019 23.3 (16:20) 19.3 (00:00) 21.3 8.89 (19:00) 6.11 (16:50) 0 0 0 0 0
04-08-2019 22.9 (16:20) 18.9 (00:00) 20.9 9.72 (13:20) 6.11 (11:50) 0 0 0 0 0
03-08-2019 24.7 (15:20) 18.3 (00:00) 21.5 6.11 (17:20) 4.17 (16:30) 0 0 0 0 0
02-08-2019 23.9 (16:20) 20.1 (00:00) 22 9.72 (19:40) 5.83 (15:00) 0 0 0 0 0
01-08-2019 27.8 (18:30) 21.9 (00:00) 24.8 13.89 (01:00) 8.61 (01:20) 0 0 0 0 0
31-07-2019 27.2 (15:50) 20.9 (00:00) 24.1 18.89 (13:10) 11.94 (13:50) 0 0 0 0 0
30-07-2019 25.3 (19:10) 19 (00:00) 22.1 8.06 (07:50) 5.28 (13:40) 0 0 0 0 0
29-07-2019 23.6 (14:40) 18.4 (00:00) 21 9.72 (14:00) 6.67 (14:00) 0 0 0 0 0
28-07-2019 23.1 (14:10) 19.5 (00:00) 21.3 14.72 (21:40) 6.67 (19:10) 0 0 0 0 0
27-07-2019 22.5 (14:20) 19.5 (00:00) 21 13.33 (04:30) 8.61 (04:50) 0 0 0 0 0
26-07-2019 23.3 (13:10) 20.2 (00:00) 21.8 12.5 (23:40) 6.94 (10:30) 0 0 0 0 0
25-07-2019 25 (10:20) 21.4 (00:00) 23.2 10 (00:50) 6.11 (00:50) 0 0 0 0 0
24-07-2019 27.2 (15:50) 21.4 (00:00) 24.3 14.72 (21:00) 10 (21:00) 0 0 0 0 0
23-07-2019 28.1 (13:00) 21.6 (00:00) 24.9 25.28 (16:40) 10.83 (18:20) 0 0 0 0 0
22-07-2019 27.5 (15:40) 22.9 (00:00) 25.2 20.56 (18:20) 13.61 (13:40) 0 0 0 0 0
21-07-2019 28.2 (15:30) 20.4 (00:00) 24.3 13.89 (18:00) 9.17 (17:50) 0 0 0 0 0

Gráficas

Temp. máximas Temp. mínimas Temp. medias Precipitaciones Rachas de viento máximas Velocidades máximas media en intervalos de 10 minutos

Datos horarios

Fecha y hora oficial Temperatura (ºC) Velocidad del viento (km/h) Dirección del viento Racha (km/h) Dirección de racha Precipitación (mm) Presión (hPa) Tendencia (hPa) Humedad (%)
2019-08-19 23:00:00 19.8 16 Oeste 27 Oeste 0 1010.8 1.7 94
2019-08-19 22:00:00 20.2 20 Oeste 35 Oeste 0 1010.1 0.9 89
2019-08-19 21:00:00 20.7 21 Oeste 36 Oeste 0 1009.6 0 83
2019-08-19 20:00:00 21.3 21 Oeste 35 Oeste 0 1009.1 -1.1 84
2019-08-19 19:00:00 22.1 19 Oeste 36 Oeste 0 1009.2 -1.2 82
2019-08-19 18:00:00 22.7 22 Sudoeste 35 Sudoeste 0 1009.6 -1 80
2019-08-19 17:00:00 22.4 22 Oeste 40 Oeste 0 1010.2 -0.7 81
2019-08-19 16:00:00 22.7 23 Oeste 41 Oeste 0 1010.4 -1 81
2019-08-19 15:00:00 23 22 Oeste 36 Oeste 0 1010.6 -1 79
2019-08-19 14:00:00 22.9 17 Oeste 29 Oeste 0 1010.9 -0.8 80
2019-08-19 13:00:00 22.7 15 Oeste 25 Sudoeste 0 1011.4 -0.1 81
2019-08-19 12:00:00 21.5 13 Oeste 24 Oeste 0 1011.6 0.5 83
2019-08-19 11:00:00 21.3 11 Sudoeste 26 Sudoeste 0 1011.7 1.2 85
2019-08-19 10:00:00 20 19 Oeste 30 Oeste 0 1011.5 1.6 92
2019-08-19 09:00:00 19 18 Oeste 32 Oeste 0 1011.1 1.2 95
2019-08-19 08:00:00 18.4 17 Oeste 31 Oeste 0 1010.5 0.1 99
2019-08-19 07:00:00 18.3 17 Oeste 27 Oeste 0 1009.9 -0.5 99
2019-08-19 06:00:00 19.2 15 Noroeste 23 Oeste 0 1009.9 -0.8 97
2019-08-19 05:00:00 19.8 13 Noroeste 21 Noroeste 0 1010.4 -0.2 96
2019-08-19 04:00:00 19.8 12 Noroeste 26 Noroeste 0 1010.4 -0.4 97
2019-08-19 03:00:00 19.7 15 Noroeste 25 Oeste 0 1010.7 -0.2 99
2019-08-19 02:00:00 19.7 14 Oeste 24 Oeste 0 1010.6 0.3 97
2019-08-19 01:00:00 20.1 16 Oeste 26 Oeste 0 1010.8 1.4 95
2019-08-19 00:00:00 20.1 20 Oeste 30 Oeste 0 1010.9 1.7 96
2019-08-18 23:00:00 20.2 12 Oeste 30 Oeste 0 1010.3 1.5 95
2019-08-18 22:00:00 20.2 17 Oeste 30 Oeste 0 1009.4 0.1 93
2019-08-18 21:00:00 21.2 13 Oeste 37 Oeste 0 1009.2 -0.3 89
2019-08-18 20:00:00 21.9 21 Oeste 36 Oeste 0 1008.8 -1.2 87
2019-08-18 19:00:00 23 17 Oeste 32 Oeste 0 1009.3 -0.9 82
2019-08-18 18:00:00 23 16 Oeste 26 Oeste 0 1009.5 -1.2 81
2019-08-18 17:00:00 23.1 16 Noroeste 29 Oeste 0 1010 -1 80
2019-08-18 16:00:00 23.1 18 Noroeste 34 Oeste 0 1010.2 -1.1 80
2019-08-18 15:00:00 22.7 24 Oeste 37 Oeste 0 1010.7 -0.5 80
2019-08-18 14:00:00 22.4 24 Oeste 35 Oeste 0 1011 0.4 82
2019-08-18 13:00:00 22.6 20 Noroeste 35 Noroeste 0 1011.3 1.2 80
2019-08-18 12:00:00 22.4 17 Noroeste 31 Oeste 0 1011.2 1.7 83
2019-08-18 11:00:00 21.3 20 Noroeste 31 Noroeste 0 1010.6 1.8 88
2019-08-18 10:00:00 20.5 17 Noroeste 27 Oeste 0 1010.1 1.8 92
2019-08-18 09:00:00 20.5 16 Oeste 26 Noroeste 0 1009.5 1.4 88
2019-08-18 08:00:00 20.1 13 Noroeste 21 Noroeste 0 1008.8 1.2 86
2019-08-18 07:00:00 21 10 Noroeste 15 Noroeste 0 1008.3 0.5 83
2019-08-18 06:00:00 20.2 6 Noroeste 12 Noroeste 0 1008.1 -0.1 82
2019-08-18 05:00:00 20.7 3 Noroeste 11 Nordeste 0 1007.6 -0.9 88
2019-08-18 04:00:00 21 9 Nordeste 18 Este 0 1007.8 -0.4 93
2019-08-18 03:00:00 20.9 14 Nordeste 22 Este 0 1008.2 -0.1 94
2019-08-18 02:00:00 21.7 16 Este 29 Este 0 1008.5 0.3 88
2019-08-18 01:00:00 21.9 19 Este 34 Este 0 1008.2 0.6 89
2019-08-18 00:00:00 22.2 19 Este 29 Este 0 1008.3 2.1 87
2019-08-17 23:00:00 22.2 14 Nordeste 35 Este 0 1008.2 1.9 86
2019-08-17 22:00:00 22.5 25 Este 48 Este 0 1007.6 0.6 85
2019-08-17 21:00:00 23 32 Este 50 Este 0 1006.2 -1.3 83
2019-08-17 20:00:00 23.8 32 Este 52 Este 0 1006.3 -1.8 77
2019-08-17 19:00:00 24.6 36 Este 51 Este 0 1007 -1.5 75
2019-08-17 18:00:00 25.1 33 Este 51 Este 0 1007.5 -1.7 72
2019-08-17 17:00:00 25.6 33 Este 47 Este 0 1008.1 -1.3 71
2019-08-17 16:00:00 26.7 31 Este 50 Este 0 1008.5 -1.2 68
2019-08-17 15:00:00 26.3 33 Este 52 Este 0 1009.2 -0.8 69
2019-08-17 14:00:00 26.4 33 Este 51 Este 0 1009.4 -0.4 70
2019-08-17 13:00:00 25.4 33 Este 53 Este 0 1009.7 -0.2 71
2019-08-17 12:00:00 24.7 37 Este 54 Este 0 1010 0.1 75
2019-08-17 11:00:00 24.6 31 Este 49 Este 0 1009.8 0.2 76
2019-08-17 10:00:00 23.3 26 Este 44 Este 0 1009.9 0.5 82
2019-08-17 09:00:00 22.1 24 Este 43 Este 0 1009.9 0.9 89
2019-08-17 08:00:00 21.5 23 Este 42 Este 0 1009.6 0.5 91
2019-08-17 07:00:00 21.5 23 Este 44 Este 0 1009.4 0.1 91
2019-08-17 06:00:00 21.1 32 Este 53 Este 0 1009 -0.8 94
2019-08-17 05:00:00 20.4 34 Este 51 Este 0 1009.1 -1.4 98
2019-08-17 04:00:00 20.2 31 Este 50 Este 0 1009.3 -1.3 98
2019-08-17 03:00:00 20.7 26 Este 45 Este 0 1009.8 -1 97
2019-08-17 02:00:00 20.6 28 Este 42 Este 0 1010.5 -0.2 94
2019-08-17 01:00:00 22 28 Este 42 Este 0 1010.6 0.6 88
2019-08-17 00:00:00 22.6 25 Este 39 Este 0 1010.8 1.1 85
2019-08-16 23:00:00 22.9 28 Este 46 Este 0 1010.7 1.3 83
2019-08-16 22:00:00 23.3 31 Este 48 Este 0 1010 0.6 82
2019-08-16 21:00:00 23.3 29 Este 44 Este 0 1009.7 -0.6 81
2019-08-16 20:00:00 24.5 28 Este 50 Este 0 1009.4 -1.3 76
2019-08-16 19:00:00 25.1 33 Este 48 Este 0 1009.4 -1.7 73
2019-08-16 18:00:00 25.2 28 Este 45 Este 0 1010.3 -0.8 71
2019-08-16 17:00:00 25 28 Este 47 Este 0 1010.7 -1.1 73
2019-08-16 16:00:00 25.2 33 Este 51 Este 0 1011.1 -1.1 73
2019-08-16 15:00:00 25.2 37 Este 54 Este 0 1011.1 -1.2 76
2019-08-16 14:00:00 25.5 27 Este 49 Este 0 1011.8 -0.3 74
2019-08-16 13:00:00 25.2 28 Este 45 Este 0 1012.2 0.4 75
2019-08-16 12:00:00 24.6 28 Este 42 Este 0 1012.3 0.9 77
2019-08-16 11:00:00 24.2 24 Este 40 Este 0 1012.1 0.9 78
2019-08-16 10:00:00 23.1 24 Este 38 Este 0 1011.8 1.1 81
2019-08-16 09:00:00 22.4 22 Este 41 Nordeste 0 1011.4 0.6 86
2019-08-16 08:00:00 21.8 24 Este 39 Este 0 1011.2 0.4 89
2019-08-16 07:00:00 21.6 24 Este 40 Este 0 1010.7 -0.4 90
2019-08-16 06:00:00 21 27 Este 43 Este 0 1010.8 -0.5 94
2019-08-16 05:00:00 20.6 26 Este 42 Este 0 1010.8 -1 93
2019-08-16 04:00:00 21 27 Este 43 Este 0 1011.1 -0.7 85
2019-08-16 03:00:00 21.9 26 Este 36 Este 0 1011.3 -0.7 80
2019-08-16 02:00:00 22.1 21 Este 33 Este 0 1011.8 -0.1 81
2019-08-16 01:00:00 22.5 20 Este 32 Este 0 1011.8 0.6 79
2019-08-16 00:00:00 21.8 20 Este 34 Este 0 1012 1.3 85
2019-08-15 23:00:00 21.9 23 Este 35 Este 0 1011.9 1.4 85
2019-08-15 22:00:00 22.3 22 Este 37 Este 0 1011.2 0.9 82
2019-08-15 21:00:00 23 26 Este 41 Este 0 1010.7 0.6 80
2019-08-15 20:00:00 23.6 24 Este 43 Este 0 1010.5 -0.1 77
2019-08-15 19:00:00 24.8 31 Este 54 Este 0 1010.3 -0.7 73
2019-08-15 18:00:00 25 34 Este 50 Este 0 1010.1 -1.4 74
2019-08-15 17:00:00 25.2 29 Este 49 Este 0 1010.6 -1.3 74
2019-08-15 16:00:00 25 33 Este 50 Este 0 1011 -1.2 74
2019-08-15 15:00:00 25 31 Este 51 Este 0 1011.5 -0.8 75
2019-08-15 14:00:00 26 30 Este 46 Este 0 1011.9 -0.2 71
2019-08-15 13:00:00 26.2 31 Este 46 Este 0 1012.2 0.5 71
2019-08-15 12:00:00 25.5 31 Este 47 Este 0 1012.3 0.6 72
2019-08-15 11:00:00 24.5 31 Este 49 Este 0 1012.1 0.9 76
2019-08-15 10:00:00 23.3 30 Este 49 Este 0 1011.7 0.6 81
2019-08-15 09:00:00 22.1 28 Este 45 Este 0 1011.7 0.6 89
2019-08-15 08:00:00 21.2 32 Este 48 Este 0 1011.2 -0.1 92
2019-08-15 07:00:00 20.9 26 Este 40 Este 0 1011.1 -0.2 92
2019-08-15 06:00:00 21 21 Nordeste 40 Nordeste 0 1011.1 -0.4 94
2019-08-15 05:00:00 20.4 20 Este 42 Este 0 1011.3 -0.8 96
2019-08-15 04:00:00 22.3 24 Este 42 Este 0 1011.3 -1.2 86
2019-08-15 03:00:00 22.3 25 Este 41 Este 0 1011.5 -1.2 86
2019-08-15 02:00:00 22.6 21 Este 33 Este 0 1012.1 -0.3 85
2019-08-15 01:00:00 22.6 19 Este 31 Este 0 1012.5 1 86
2019-08-15 00:00:00 22.7 18 Nordeste 34 Este 0 1012.7 2.1 87
2019-08-14 23:00:00 22.4 20 Este 40 Este 0 1012.4 2.1 90
2019-08-14 22:00:00 22.3 24 Este 48 Este 0 1011.5 0.7 90
2019-08-14 21:00:00 22.8 34 Este 51 Este 0 1010.6 -0.3 89
2019-08-14 20:00:00 23.5 33 Este 52 Este 0 1010.3 -0.9 86
2019-08-14 19:00:00 24.3 32 Este 54 Este 0 1010.8 -1.2 82
2019-08-14 18:00:00 24.8 35 Este 54 Este 0 1010.9 -1.6 80
2019-08-14 17:00:00 25.3 36 Este 57 Este 0 1011.2 -1.7 79
2019-08-14 16:00:00 25.8 34 Este 54 Este 0 1012 -0.9 78
2019-08-14 15:00:00 26.8 33 Este 57 Este 0 1012.5 -1 76
2019-08-14 14:00:00 26.2 37 Este 57 Este 0 1012.9 0 78
2019-08-14 13:00:00 26.8 32 Este 57 Este 0 1012.9 0.4 76
2019-08-14 12:00:00 24.9 34 Este 57 Este 0 1013.5 1.4 80
2019-08-14 11:00:00 24.6 33 Este 54 Este 0 1012.9 1.1 81
2019-08-14 10:00:00 22.8 34 Este 55 Este 0 1012.5 1.1 92
2019-08-14 09:00:00 22.9 31 Este 58 Este 0 1012.1 0.7 90
2019-08-14 08:00:00 22 36 Este 57 Este 0 1011.8 0.3 97
2019-08-14 07:00:00 22.2 35 Este 53 Este 0 1011.4 -0.5 92
2019-08-14 06:00:00 22.4 32 Este 58 Este 0 1011.4 -1 95
2019-08-14 05:00:00 21.8 31 Este 51 Este 0 1011.5 -1.2 96
2019-08-14 04:00:00 22 32 Este 50 Este 0 1011.9 -0.6 94
2019-08-14 03:00:00 22 27 Este 44 Este 0 1012.4 -0.1 92
2019-08-14 02:00:00 20.9 23 Este 34 Este 0 1012.7 0.6 93
2019-08-14 01:00:00 21.7 22 Este 43 Este 0 1012.5 1.2 89
2019-08-14 00:00:00 23.4 22 Este 39 Nordeste 0 1012.5 1.8 85
2019-08-13 23:00:00 23.4 26 Este 44 Nordeste 0 1012.1 1.6 86
2019-08-13 22:00:00 23.5 22 Nordeste 40 Este 0 1011.3 1.1 86
2019-08-13 21:00:00 24.5 17 Nordeste 37 Nordeste 0 1010.7 0.3 82
2019-08-13 20:00:00 25 23 Este 41 Este 0 1010.5 -0.1 78
2019-08-13 19:00:00 25 30 Este 48 Este 0 1010.2 -1.1 77
2019-08-13 18:00:00 27 30 Este 47 Este 0 1010.4 -1.3 71
2019-08-13 17:00:00 27 30 Este 46 Este 0 1010.6 -1.2 70
2019-08-13 16:00:00 27.4 26 Este 40 Este 0 1011.3 -0.8 56
2019-08-13 15:00:00 27.5 26 Este 42 Este 0 1011.7 -0.7 53
2019-08-13 14:00:00 25.9 27 Este 40 Este 0 1011.8 -0.1 59
2019-08-13 13:00:00 24.8 23 Este 37 Este 0 1012.1 0.2 53
2019-08-13 12:00:00 22.9 24 Este 40 Este 0 1012.4 1.5 62
2019-08-13 11:00:00 23.6 24 Este 35 Este 0 1011.9 1.3 59
2019-08-13 10:00:00 20.5 7 Noroeste 14 Noroeste 0 1011.9 1.7 68
2019-08-13 09:00:00 19.8 4 Oeste 19 Este 0 1010.9 1 69
2019-08-13 08:00:00 17.8 4 Norte 19 Este 0 1010.6 0.5 75
2019-08-13 07:00:00 17 0 Calma 6 Norte 0 1010.2 -0.2 74
2019-08-13 06:00:00 15.8 0 Calma 6 Norte 0 1009.9 -0.8 77
2019-08-13 05:00:00 16 5 Norte 9 Nordeste 0 1010.1 -0.9 77
2019-08-13 04:00:00 17.1 6 Norte 12 Nordeste 0 1010.4 -0.9 73
2019-08-13 03:00:00 16.7 7 Norte 10 Norte 0 1010.7 -0.5 76
2019-08-13 02:00:00 19.1 0 Calma 13 Sudoeste 0 1011 0.1 76
2019-08-13 01:00:00 20.1 6 Sudoeste 20 Noroeste 0 1011.3 1.3 75
2019-08-13 00:00:00 21.4 13 Oeste 22 Oeste 0 1011.2 1.9 51
2019-08-12 23:00:00 19.7 10 Oeste 23 Oeste 0 1010.9 2.2 73
2019-08-12 22:00:00 19.6 14 Oeste 33 Oeste 0 1010 1.4 80
2019-08-12 21:00:00 20.6 14 Oeste 33 Oeste 0 1009.3 0.3 72
2019-08-12 20:00:00 21.9 23 Oeste 38 Noroeste 0 1008.7 -0.9 62
2019-08-12 19:00:00 22.4 26 Oeste 43 Oeste 0 1008.6 -1.6 59
2019-08-12 18:00:00 22.6 23 Oeste 40 Oeste 0 1009 -2 59
2019-08-12 17:00:00 22.2 23 Oeste 44 Oeste 0 1009.6 -2 62
2019-08-12 16:00:00 22.1 19 Oeste 36 Sudoeste 0 1010.2 -1.8 67
2019-08-12 15:00:00 22.1 22 Oeste 46 Oeste 0 1011 -0.6 69
2019-08-12 14:00:00 21.6 15 Oeste 29 Oeste 0 1011.6 0.1 69
2019-08-12 13:00:00 21 16 Sudoeste 28 Oeste 0 1012 1 70
2019-08-12 12:00:00 20.1 18 Oeste 31 Oeste 0 1011.6 1 69
2019-08-12 11:00:00 20.3 20 Sudoeste 29 Oeste 0 1011.5 1.6 65
2019-08-12 10:00:00 19.9 15 Sudoeste 26 Sudoeste 0 1011 1.6 64
2019-08-12 09:00:00 19.8 14 Oeste 26 Oeste 0 1010.6 0.9 50
2019-08-12 08:00:00 19.5 12 Noroeste 30 Norte 0 1009.9 -0.1 45
2019-08-12 07:00:00 20.1 24 Norte 33 Norte 0 1009.4 -1 44
2019-08-12 06:00:00 19.7 11 Noroeste 23 Norte 0 1009.7 -1.5 46
2019-08-12 05:00:00 19.2 11 Noroeste 18 Noroeste 0 1010 -1.8 56
2019-08-12 04:00:00 18.8 12 Oeste 25 Oeste 0 1010.4 -1.8 78
2019-08-12 03:00:00 19.3 14 Oeste 23 Oeste 0 1011.2 -1.5 83
2019-08-12 02:00:00 19.7 12 Oeste 22 Oeste 0 1011.8 -0.7 80
2019-08-12 01:00:00 19.9 9 Oeste 21 Sudoeste 0 1012.2 0.4 80
2019-08-12 00:00:00 19.8 13 Sudoeste 28 Sudoeste 0 1012.7 1.5 81
2019-08-11 23:00:00 19.9 21 Sudoeste 29 Sudoeste 0 1012.5 2 82
2019-08-11 22:00:00 19.9 10 Oeste 24 Oeste 0 1011.8 1.6 77
2019-08-11 21:00:00 20.4 13 Oeste 40 Oeste 0 1011.2 0.9 75
2019-08-11 20:00:00 21.6 22 Oeste 45 Oeste 0 1010.5 -0.5 69
2019-08-11 19:00:00 22.1 24 Oeste 46 Oeste 0 1010.2 -1.1 67
2019-08-11 18:00:00 22.3 28 Oeste 49 Oeste 0 1010.3 -1.5 67
2019-08-11 17:00:00 22.5 27 Oeste 50 Oeste 0 1011 -1.6 62
2019-08-11 16:00:00 22.5 33 Oeste 50 Oeste 0 1011.3 -2.1 61
2019-08-11 15:00:00 21.4 32 Oeste 49 Oeste 0 1011.8 -1.7 69
2019-08-11 14:00:00 21.6 23 Oeste 39 Oeste 0 1012.6 -0.6 70
2019-08-11 13:00:00 22 19 Oeste 36 Sudoeste 0 1013.4 0.4 69
2019-08-11 12:00:00 21.4 21 Sudoeste 32 Oeste 0 1013.5 1.1 66
2019-08-11 11:00:00 20.8 20 Oeste 29 Oeste 0 1013.2 1.4 66
2019-08-11 10:00:00 20 18 Oeste 29 Oeste 0 1013 1.8 73
2019-08-11 09:00:00 20.1 8 Oeste 21 Oeste 0 1012.4 1 70
2019-08-11 08:00:00 18.6 13 Oeste 25 Oeste 0 1011.8 0.6 86
2019-08-11 07:00:00 18.7 12 Oeste 21 Oeste 0 1011.2 -0.1 89
2019-08-11 06:00:00 19.2 13 Oeste 23 Oeste 0 1011.4 -0.1 89
2019-08-11 05:00:00 19.3 13 Oeste 33 Sudoeste 0 1011.2 -0.9 89
2019-08-11 04:00:00 19.7 19 Sudoeste 30 Sudoeste 0 1011.3 -1 90
2019-08-11 03:00:00 20 19 Oeste 30 Sudoeste 0 1011.5 -1.3 91
2019-08-11 02:00:00 19.6 15 Sudoeste 25 Oeste 0 1012.1 -0.7 91
2019-08-11 01:00:00 20.1 16 Oeste 28 Oeste 0 1012.3 0.6 86
2019-08-11 00:00:00 20.4 18 Oeste 32 Oeste 0 1012.8 1.9 85
2019-08-10 23:00:00 20.4 23 Oeste 35 Oeste 0 1012.8 2.3 83
2019-08-10 22:00:00 20.6 22 Oeste 38 Oeste 0 1011.7 0.9 81
2019-08-10 21:00:00 21.4 22 Oeste 35 Oeste 0 1010.9 0.1 80
2019-08-10 20:00:00 22.6 17 Oeste 41 Oeste 0 1010.5 -1.2 75
2019-08-10 19:00:00 23.4 17 Sudoeste 33 Sudoeste 0 1010.8 -1.8 74
2019-08-10 18:00:00 23.1 19 Oeste 33 Oeste 0 1010.8 -2.1 80
2019-08-10 17:00:00 23.3 20 Oeste 34 Oeste 0 1011.7 -2.2 80
2019-08-10 16:00:00 23.3 18 Oeste 35 Oeste 0 1012.6 -1.7 80
2019-08-10 15:00:00 23.5 20 Oeste 34 Oeste 0 1012.9 -1.4 79
2019-08-10 14:00:00 23.3 19 Oeste 34 Oeste 0 1013.9 -0.1 80
2019-08-10 13:00:00 23.1 23 Oeste 33 Sudoeste 0 1014.3 0.6 82
2019-08-10 12:00:00 22.4 15 Oeste 28 Oeste 0 1014.3 1.1 85
2019-08-10 11:00:00 22.2 13 Oeste 25 Sudoeste 0 1014 1.7 87
2019-08-10 10:00:00 20.7 15 Sudoeste 25 Sudoeste 0 1013.7 1.5 94
2019-08-10 09:00:00 20.4 14 Sudoeste 22 Oeste 0 1013.2 1 97
2019-08-10 08:00:00 19.9 14 Oeste 31 Oeste 0 1012.3 -1.1 97
2019-08-10 07:00:00 20.8 16 Oeste 27 Oeste 0 1012.2 -1.5 96
2019-08-10 06:00:00 21.1 17 Oeste 27 Oeste 0 1012.2 -2.1 93
2019-08-10 05:00:00 21 15 Oeste 30 Sudoeste 0 1013.4 -1 94
2019-08-10 04:00:00 20.9 17 Sudoeste 31 Sudoeste 0 1013.7 -0.7 95
2019-08-10 03:00:00 20.9 21 Sudoeste 32 Sudoeste 0 1014.3 0.5 95
2019-08-10 02:00:00 20.6 14 Oeste 31 Oeste 0 1014.4 1.3 96
2019-08-10 01:00:00 21 20 Oeste 33 Oeste 0 1014.4 1.8 95
2019-08-10 00:00:00 20.5 21 Oeste 40 Oeste 0 1013.8 1.9 95
2019-08-09 23:00:00 20.4 22 Oeste 37 Oeste 0 1013.1 1.8 94
2019-08-09 22:00:00 20.4 21 Oeste 37 Oeste 0 1012.6 1.4 94
2019-08-09 21:00:00 20.8 18 Oeste 34 Sudoeste 0 1011.9 0.3 92
2019-08-09 20:00:00 21.6 18 Oeste 35 Oeste 0 1011.3 -1 88
2019-08-09 19:00:00 22.3 19 Oeste 39 Oeste 0 1011.2 -1.8 86
2019-08-09 18:00:00 22.2 23 Oeste 41 Oeste 0 1011.6 -1.7 84
2019-08-09 17:00:00 22.7 23 Oeste 40 Oeste 0 1012.3 -1.1 82
2019-08-09 16:00:00 22.8 27 Oeste 41 Sudoeste 0 1013 -0.3 81
2019-08-09 15:00:00 23 24 Oeste 42 Oeste 0 1013.3 -0.1 80
2019-08-09 14:00:00 22.4 26 Sudoeste 44 Sudoeste 0 1013.4 0.7 83
2019-08-09 13:00:00 20.8 27 Oeste 46 Oeste 0 1013.3 0.9 89
2019-08-09 12:00:00 21.5 24 Oeste 37 Oeste 0 1013.4 1.2 87
2019-08-09 11:00:00 21.4 24 Oeste 38 Oeste 0 1012.7 0.5 87
2019-08-09 10:00:00 21.3 23 Oeste 33 Oeste 0 1012.4 0.3 88
2019-08-09 09:00:00 20.6 18 Oeste 26 Oeste 0 1012.2 0.4 94
2019-08-09 08:00:00 20.2 14 Oeste 24 Oeste 0 1012.2 0.4 95
2019-08-09 07:00:00 20 12 Oeste 22 Oeste 0 1012.1 0.4 94
2019-08-09 06:00:00 20 14 Oeste 23 Oeste 0 1011.8 -0.3 96
2019-08-09 05:00:00 20.2 16 Oeste 28 Oeste 0 1011.8 -0.1 95
2019-08-09 04:00:00 19.9 17 Oeste 30 Oeste 0 1011.7 0.2 95
2019-08-09 03:00:00 19.9 18 Oeste 29 Oeste 0 1012.1 1.2 94
2019-08-09 02:00:00 20.5 12 Oeste 26 Oeste 0 1011.9 1.3 81
2019-08-09 01:00:00 21 10 Oeste 21 Oeste 0 1011.5 2.1 79
2019-08-09 00:00:00 21.3 11 Noroeste 23 Sudoeste 0 1010.9 2.2 73
2019-08-08 23:00:00 20.6 15 Oeste 25 Sudoeste 0 1010.6 2.1 88
2019-08-08 22:00:00 21.4 9 Noroeste 31 Oeste 0 1009.4 0.8 82
2019-08-08 21:00:00 22.2 21 Oeste 33 Oeste 0 1008.7 0.1 78
2019-08-08 20:00:00 22.6 10 Oeste 36 Oeste 0 1008.5 -0.3 77
2019-08-08 19:00:00 23.1 13 Noroeste 39 Noroeste 0 1008.6 -0.7 76
2019-08-08 18:00:00 23 18 Oeste 33 Oeste 0 1008.6 -1.3 82
2019-08-08 17:00:00 23.3 14 Oeste 32 Oeste 0 1008.8 -1.2 81
2019-08-08 16:00:00 23.1 17 Oeste 29 Oeste 0 1009.3 -0.9 81
2019-08-08 15:00:00 22.3 15 Oeste 23 Oeste 0 1009.9 -0.4 88
2019-08-08 14:00:00 22.3 12 Oeste 28 Sudoeste 0 1010 -0.5 88
2019-08-08 13:00:00 22.3 15 Oeste 30 Oeste 0 1010.2 -0.2 86
2019-08-08 12:00:00 21.6 15 Oeste 27 Oeste 0 1010.3 0.2 88
2019-08-08 11:00:00 20.4 13 Oeste 23 Oeste 0 1010.5 0.8 95
2019-08-08 10:00:00 19.9 15 Oeste 28 Oeste 0 1010.4 1.1 97
2019-08-08 09:00:00 19.8 15 Oeste 25 Oeste 0 1010.1 1 98
2019-08-08 08:00:00 19.3 13 Oeste 23 Oeste 0 1009.7 0.8 99
2019-08-08 07:00:00 19.3 17 Oeste 27 Oeste 0 1009.3 -0.2 99
2019-08-08 06:00:00 19.1 19 Oeste 26 Oeste 0 1009.1 -0.7 99
2019-08-08 05:00:00 19.5 18 Oeste 27 Oeste 0 1008.9 -1.6 99
2019-08-08 04:00:00 19.6 13 Oeste 25 Oeste 0 1009.5 -1.4 98
2019-08-08 03:00:00 19.6 15 Oeste 28 Noroeste 0 1009.8 -1.2 97
2019-08-08 02:00:00 19.7 17 Oeste 26 Oeste 0 1010.5 0.1 96
2019-08-08 01:00:00 19.5 13 Noroeste 26 Oeste 0 1010.9 1.2 96
2019-08-08 00:00:00 19.7 15 Noroeste 28 Noroeste 0 1011 2.1 95
2019-08-07 23:00:00 20.6 17 Oeste 28 Noroeste 0 1010.4 2.5 94
2019-08-07 22:00:00 20.7 14 Oeste 31 Oeste 0 1009.7 1.6 91
2019-08-07 21:00:00 21.3 13 Oeste 33 Sudoeste 0 1008.9 0.8 83
2019-08-07 20:00:00 22.5 22 Sudoeste 37 Oeste 0 1007.9 -0.6 82
2019-08-07 19:00:00 22.7 18 Oeste 36 Oeste 0 1008.1 -0.8 79
2019-08-07 18:00:00 22.8 23 Oeste 40 Oeste 0 1008.1 -1.2 82
2019-08-07 17:00:00 23.1 22 Oeste 35 Oeste 0 1008.5 -1.1 81
2019-08-07 16:00:00 23.1 15 Oeste 36 Oeste 0 1008.9 -1 80
2019-08-07 15:00:00 22.8 19 Oeste 35 Oeste 0 1009.3 -1.1 83
2019-08-07 14:00:00 22.5 22 Oeste 30 Oeste 0 1009.6 -0.3 83
2019-08-07 13:00:00 22.3 19 Oeste 34 Oeste 0 1009.9 0.1 82
2019-08-07 12:00:00 21.8 15 Oeste 27 Oeste 0 1010.4 1.3 84
2019-08-07 11:00:00 21.2 14 Oeste 28 Oeste 0 1009.9 1 86
2019-08-07 10:00:00 20.8 17 Oeste 27 Oeste 0 1009.8 1.7 90
2019-08-07 09:00:00 20.4 14 Noroeste 23 Oeste 0 1009.1 0.6 92
2019-08-07 08:00:00 19.7 15 Oeste 25 Oeste 0 1008.9 0.9 93
2019-08-07 07:00:00 19.5 15 Oeste 30 Oeste 0 1008.1 -0.1 95
2019-08-07 06:00:00 20 18 Oeste 28 Oeste 0 1008.5 -0.4 96
2019-08-07 05:00:00 19.9 15 Noroeste 24 Oeste 0 1008 -1 94
2019-08-07 04:00:00 19.9 14 Oeste 23 Oeste 0 1008.2 -0.5 96
2019-08-07 03:00:00 19.8 13 Oeste 26 Oeste 0 1008.9 0 97
2019-08-07 02:00:00 19.7 19 Oeste 31 Oeste 0 1009 0.1 97
2019-08-07 01:00:00 19.6 17 Oeste 30 Oeste 0 1008.7 0.3 96
2019-08-07 00:00:00 19.5 17 Oeste 28 Oeste 0 1008.9 1.1 95
2019-08-06 23:00:00 19.6 13 Oeste 25 Oeste 0 1008.9 1.8 94
2019-08-06 22:00:00 20 16 Noroeste 30 Oeste 0 1008.4 1.5 93
2019-08-06 21:00:00 20.8 11 Oeste 27 Sudoeste 0 1007.8 0.5 89
2019-08-06 20:00:00 21.3 11 Oeste 32 Oeste 0 1007.1 -0.5 86
2019-08-06 19:00:00 21.7 19 Oeste 35 Oeste 0 1006.9 -1 87
2019-08-06 18:00:00 22.8 18 Oeste 31 Oeste 0 1007.3 -1.3 82
2019-08-06 17:00:00 22.4 19 Oeste 30 Oeste 0 1007.6 -1.7 83
2019-08-06 16:00:00 23 15 Oeste 26 Oeste 0 1007.9 -1.8 80
2019-08-06 15:00:00 22.7 15 Oeste 23 Oeste 0 1008.6 -1.2 80
2019-08-06 14:00:00 22.4 12 Oeste 30 Oeste 0 1009.3 -0.2 79
2019-08-06 13:00:00 20.8 19 Oeste 36 Sudoeste 0 1009.7 0.1 84
2019-08-06 12:00:00 20.1 25 Oeste 36 Oeste 0 1009.8 0.4 87
2019-08-06 11:00:00 20.8 17 Oeste 26 Oeste 0 1009.5 0.8 86
2019-08-06 10:00:00 20.6 14 Noroeste 21 Oeste 0 1009.6 0.4 89
2019-08-06 09:00:00 19 9 Noroeste 18 Noroeste 0 1009.4 0.5 91
2019-08-06 08:00:00 18.3 12 Noroeste 17 Noroeste 0 1008.7 -1 88
2019-08-06 07:00:00 18 9 Noroeste 22 Noroeste 0 1009.2 -1.1 89
2019-08-06 06:00:00 19 9 Oeste 22 Noroeste 0 1008.9 -1.4 86
2019-08-06 05:00:00 19.1 15 Noroeste 23 Noroeste 0 1009.7 -0.2 94
2019-08-06 04:00:00 19.3 10 Noroeste 17 Oeste 0 1010.3 0 96
2019-08-06 03:00:00 19.5 11 Oeste 24 Noroeste 0 1010.3 0.1 94
2019-08-06 02:00:00 19.8 14 Noroeste 22 Oeste 0 1009.9 -0.1 93
2019-08-06 01:00:00 19.7 15 Oeste 28 Oeste 0 1010.3 1 93
2019-08-06 00:00:00 19.5 15 Oeste 29 Noroeste 0 1010.2 1.6 93
2019-08-05 23:00:00 20 12 Oeste 30 Oeste 0 1010 1.7 91
2019-08-05 22:00:00 20.2 17 Oeste 30 Oeste 0 1009.3 1.1 89
2019-08-05 21:00:00 21 10 Oeste 30 Oeste 0 1008.6 -0.2 85
2019-08-05 20:00:00 21.8 15 Oeste 31 Oeste 0 1008.3 -0.5 79
2019-08-05 19:00:00 22.3 16 Oeste 32 Oeste 0 1008.2 -0.8 79
2019-08-05 18:00:00 22.3 18 Oeste 31 Oeste 0 1008.8 -0.8 81
2019-08-05 17:00:00 22.6 20 Oeste 31 Oeste 0 1008.8 -1.2 82
2019-08-05 16:00:00 23 15 Oeste 30 Oeste 0 1009 -1.2 78
2019-08-05 15:00:00 22.5 16 Oeste 28 Oeste 0 1009.6 -0.7 80
2019-08-05 14:00:00 21.6 19 Oeste 28 Oeste 0 1010 -0.1 86
2019-08-05 13:00:00 22.1 20 Oeste 26 Oeste 0 1010.2 -0.1 85
2019-08-05 12:00:00 21.8 15 Oeste 24 Oeste 0 1010.3 -0.1 85
2019-08-05 11:00:00 21.3 13 Oeste 24 Oeste 0 1010.1 0.2 90
2019-08-05 10:00:00 21 12 Noroeste 23 Oeste 0 1010.3 0.8 92
2019-08-05 09:00:00 20.6 14 Oeste 23 Noroeste 0 1010.4 0.9 91
2019-08-05 08:00:00 19.5 15 Noroeste 22 Noroeste 0 1009.9 0.2 90
2019-08-05 07:00:00 19.6 14 Noroeste 21 Noroeste 0 1009.5 -0.4 92
2019-08-05 06:00:00 19.6 12 Noroeste 22 Noroeste 0 1009.5 -0.5 92
2019-08-05 05:00:00 20.2 14 Noroeste 21 Noroeste 0 1009.7 -0.9 90
2019-08-05 04:00:00 20.1 12 Noroeste 19 Noroeste 0 1009.9 -0.5 93
2019-08-05 03:00:00 20 9 Noroeste 16 Noroeste 0 1010 0.1 94
2019-08-05 02:00:00 19.9 10 Noroeste 23 Oeste 0 1010.6 0.5 93
2019-08-05 01:00:00 20.4 15 Oeste 25 Oeste 0 1010.4 0.7 92
2019-08-05 00:00:00 20.1 13 Oeste 23 Oeste 0 1009.9 0.8 91
2019-08-04 23:00:00 19.9 10 Noroeste 20 Sudoeste 0 1010.1 1.1 90
2019-08-04 22:00:00 20.2 10 Oeste 21 Oeste 0 1009.7 0.8 89
2019-08-04 21:00:00 21.3 13 Oeste 26 Oeste 0 1009.1 -0.1 86
2019-08-04 20:00:00 21.9 14 Oeste 28 Oeste 0 1009 -0.6 84
2019-08-04 19:00:00 22.4 17 Oeste 29 Oeste 0 1008.9 -1.1 83
2019-08-04 18:00:00 22.1 19 Oeste 34 Oeste 0 1009.2 -0.7 83
2019-08-04 17:00:00 22.2 19 Oeste 30 Oeste 0 1009.6 -0.9 81
2019-08-04 16:00:00 22.4 20 Oeste 31 Oeste 0 1010 -1 79
2019-08-04 15:00:00 22.1 22 Oeste 31 Oeste 0 1009.9 -0.9 79
2019-08-04 14:00:00 22.5 17 Oeste 35 Oeste 0 1010.5 -0.3 77
2019-08-04 13:00:00 22.1 20 Oeste 32 Oeste 0 1011 0 78
2019-08-04 12:00:00 21.4 19 Oeste 30 Oeste 0 1010.8 0.1 82
2019-08-04 11:00:00 21.2 19 Oeste 28 Oeste 0 1010.8 0.2 83
2019-08-04 10:00:00 21 12 Oeste 23 Oeste 0 1011 0.6 84
2019-08-04 09:00:00 19.7 11 Noroeste 18 Oeste 0 1010.7 0.4 89
2019-08-04 08:00:00 19 10 Noroeste 17 Noroeste 0 1010.6 0 94
2019-08-04 07:00:00 19.3 10 Noroeste 17 Noroeste 0 1010.4 -0.2 93
2019-08-04 06:00:00 19.5 7 Noroeste 14 Noroeste 0 1010.3 -0.5 89
2019-08-04 05:00:00 19.6 9 Noroeste 18 Noroeste 0 1010.6 -0.2 89
2019-08-04 04:00:00 20 10 Noroeste 18 Noroeste 0 1010.6 -0.1 90
2019-08-04 03:00:00 20.5 12 Oeste 17 Noroeste 0 1010.8 0.5 88
2019-08-04 02:00:00 20.1 10 Noroeste 18 Noroeste 0 1010.8 0.9 89
2019-08-04 01:00:00 20.6 11 Noroeste 17 Noroeste 0 1010.7 1.4 90
2019-08-04 00:00:00 20.9 7 Oeste 18 Oeste 0 1010.3 1.7 93
2019-08-03 23:00:00 21 9 Oeste 17 Sudoeste 0 1009.9 1.4 93
2019-08-03 22:00:00 21.1 10 Oeste 17 Oeste 0 1009.3 0.6 91
2019-08-03 21:00:00 21.6 12 Oeste 19 Oeste 0 1008.6 -0.3 85
2019-08-03 20:00:00 22.6 12 Oeste 19 Oeste 0 1008.5 -1 81
2019-08-03 19:00:00 23.5 11 Oeste 20 Oeste 0 1008.7 -1.1 76
2019-08-03 18:00:00 24.3 10 Oeste 22 Oeste 0 1008.9 -1.4 71
2019-08-03 17:00:00 23.4 9 Oeste 22 Oeste 0 1009.5 -1 78
2019-08-03 16:00:00 23.7 12 Oeste 21 Sudoeste 0 1009.8 -1 75
2019-08-03 15:00:00 24.5 9 Sudoeste 18 Oeste 0 1010.3 -0.5 71
2019-08-03 14:00:00 24.3 10 Sudoeste 17 Sudoeste 0 1010.5 -0.2 72
2019-08-03 13:00:00 23.1 7 Sudeste 15 Sudeste 0 1010.8 0.3 70
2019-08-03 12:00:00 23.5 7 Sudoeste 15 Sudoeste 0 1010.8 0.7 68
2019-08-03 11:00:00 22.6 7 Oeste 12 Oeste 0 1010.7 1.3 72
2019-08-03 10:00:00 21.3 6 Oeste 10 Noroeste 0 1010.5 1 80
2019-08-03 09:00:00 20.4 4 Norte 10 Norte 0 1010.1 0.9 90
2019-08-03 08:00:00 18.8 8 Norte 13 Noroeste 0 1009.4 0.3 94
2019-08-03 07:00:00 18.8 7 Noroeste 10 Noroeste 0 1009.5 -0.1 94
2019-08-03 06:00:00 19.1 7 Noroeste 10 Noroeste 0 1009.2 -0.8 93
2019-08-03 05:00:00 19.4 7 Noroeste 13 Noroeste 0 1009.1 -0.8 92
2019-08-03 04:00:00 19.8 8 Noroeste 13 Norte 0 1009.6 -0.4 91
2019-08-03 03:00:00 19.4 6 Norte 10 Noroeste 0 1010 0 91
2019-08-03 02:00:00 19.8 4 Norte 10 Noroeste 0 1009.9 0.5 89
2019-08-03 01:00:00 20.4 7 Noroeste 16 Oeste 0 1010 1.2 87
2019-08-03 00:00:00 21.1 9 Oeste 17 Sudoeste 0 1010 1.4 85
2019-08-02 23:00:00 21 12 Sudoeste 22 Oeste 0 1009.4 1.3 83
2019-08-02 22:00:00 20.6 8 Oeste 26 Oeste 0 1008.8 0.3 84
2019-08-02 21:00:00 21.4 16 Oeste 31 Oeste 0 1008.6 -0.5 75
2019-08-02 20:00:00 22 16 Oeste 35 Oeste 0 1008.1 -1.4 75
2019-08-02 19:00:00 22.5 13 Oeste 32 Oeste 0 1008.5 -1.6 75
2019-08-02 18:00:00 23 18 Oeste 30 Oeste 0 1009.1 -1.4 74
2019-08-02 17:00:00 23.6 13 Oeste 28 Oeste 0 1009.5 -1 74
2019-08-02 16:00:00 23.1 16 Oeste 29 Oeste 0 1010.1 -0.7 81
2019-08-02 15:00:00 22.8 21 Oeste 32 Oeste 0 1010.5 -0.3 80
2019-08-02 14:00:00 22.8 20 Oeste 31 Oeste 0 1010.5 0.1 82
2019-08-02 13:00:00 22 18 Oeste 28 Oeste 0 1010.8 0.9 87
2019-08-02 12:00:00 21.5 15 Oeste 27 Oeste 0 1010.8 1.1 89
2019-08-02 11:00:00 20.5 16 Oeste 26 Oeste 0 1010.4 1.2 94
2019-08-02 10:00:00 20.8 15 Noroeste 29 Oeste 0 1009.9 0.7 93
2019-08-02 09:00:00 20.9 18 Noroeste 27 Oeste 0 1009.7 0.7 92
2019-08-02 08:00:00 20.3 14 Noroeste 21 Noroeste 0 1009.2 0 84
2019-08-02 07:00:00 20.4 12 Noroeste 17 Noroeste 0 1009.2 -0.1 83
2019-08-02 06:00:00 20.3 10 Noroeste 14 Noroeste 0 1009 -0.5 86
2019-08-02 05:00:00 20.4 8 Noroeste 15 Noroeste 0 1009.2 -0.6 83
2019-08-02 04:00:00 20.8 7 Noroeste 17 Sudoeste 0 1009.3 -0.4 86
2019-08-02 03:00:00 20.9 8 Oeste 19 Sudoeste 0 1009.5 0.1 88
2019-08-02 02:00:00 21.2 9 Sudoeste 17 Oeste 0 1009.8 0.9 84
2019-08-02 01:00:00 22.7 10 Oeste 21 Noroeste 0 1009.7 1.4 78
2019-08-02 00:00:00 21.9 10 Noroeste 32 Oeste 0 1009.4 1.8 86
2019-08-01 23:00:00 23.1 18 Noroeste 28 Oeste 0 1008.9 1.9 80
2019-08-01 22:00:00 24.6 10 Oeste 18 Noroeste 0 1008.3 1.6 72
2019-08-01 21:00:00 24.8 9 Noroeste 24 Oeste 0 1007.6 0.5 72
2019-08-01 20:00:00 27.1 13 Este 31 Este 0 1007 -0.4 63
2019-08-01 19:00:00 27.1 22 Este 34 Este 0 1006.7 -1.5 64
2019-08-01 18:00:00 27.3 22 Este 33 Este 0 1007.1 -1.1 62
2019-08-01 17:00:00 27.5 18 Este 35 Este 0 1007.4 -1.1 61
2019-08-01 16:00:00 27.2 23 Este 38 Este 0 1008.2 -0.6 65
2019-08-01 15:00:00 27.1 23 Este 39 Este 0 1008.2 -0.2 64
2019-08-01 14:00:00 27 22 Este 39 Este 0 1008.5 0.4 68
2019-08-01 13:00:00 27 24 Este 39 Este 0 1008.8 0.7 69
2019-08-01 12:00:00 25.9 23 Este 41 Este 0 1008.4 0.8 74
2019-08-01 11:00:00 25.2 24 Este 40 Este 0 1008.1 0.8 76
2019-08-01 10:00:00 24 23 Este 42 Este 0 1008.1 0.9 81
2019-08-01 09:00:00 23.5 21 Nordeste 39 Este 0 1007.6 0.6 84
2019-08-01 08:00:00 23.2 21 Nordeste 40 Nordeste 0 1007.3 0.2 85
2019-08-01 07:00:00 23 23 Nordeste 40 Este 0 1007.2 0 84
2019-08-01 06:00:00 23 26 Este 45 Nordeste 0 1007 -0.3 83
2019-08-01 05:00:00 23 26 Este 47 Este 0 1007.1 -0.4 84
2019-08-01 04:00:00 23.2 23 Este 43 Este 0 1007.2 -0.2 84
2019-08-01 03:00:00 23.1 27 Este 49 Este 0 1007.3 0.2 85
2019-08-01 02:00:00 23.2 28 Este 48 Este 0 1007.5 1.2 83
2019-08-01 01:00:00 23.2 27 Este 50 Este 0 1007.4 1.4 83
2019-08-01 00:00:00 23.2 32 Este 58 Este 0 1007.1 1.6 84
2019-07-31 23:00:00 23.2 36 Este 57 Este 0 1006.3 1.1 83
2019-07-31 22:00:00 23.4 34 Este 60 Este 0 1006 0.8 82
2019-07-31 21:00:00 24.1 36 Este 58 Nordeste 0 1005.5 -0.3 79
2019-07-31 20:00:00 24.9 36 Este 58 Este 0 1005.2 -0.9 74
2019-07-31 19:00:00 25.5 34 Este 57 Este 0 1005.2 -0.8 71
2019-07-31 18:00:00 26.4 32 Este 54 Este 0 1005.8 -0.9 68
2019-07-31 17:00:00 27 34 Este 54 Este 0 1006.1 -0.7 66
2019-07-31 16:00:00 27 36 Este 65 Este 0 1006 -1.1 66
2019-07-31 15:00:00 26.9 39 Este 66 Este 0 1006.7 -0.6 68
2019-07-31 14:00:00 26.7 38 Este 68 Este 0 1006.8 -0.7 69
2019-07-31 13:00:00 26.4 41 Este 66 Este 0 1007.1 -0.4 71
2019-07-31 12:00:00 25.2 35 Este 63 Este 0 1007.3 0.1 73
2019-07-31 11:00:00 24.5 39 Este 57 Este 0 1007.5 0.5 76
2019-07-31 10:00:00 23.5 25 Nordeste 43 Este 0 1007.5 1.2 79
2019-07-31 09:00:00 23 24 Nordeste 41 Este 0 1007.2 1.1 79
2019-07-31 08:00:00 21.3 19 Este 33 Este 0 1007 0.7 85
2019-07-31 07:00:00 21 18 Este 30 Este 0 1006.3 -0.4 87
2019-07-31 06:00:00 21.4 18 Este 46 Este 0 1006.1 -1 85
2019-07-31 05:00:00 22.8 19 Nordeste 47 Nordeste 0 1006.3 -1.2 76
2019-07-31 04:00:00 22.4 22 Este 42 Este 0 1006.7 0.1 83
2019-07-31 03:00:00 21.7 21 Nordeste 38 Este 0 1007.1 -0.1 60
2019-07-31 02:00:00 21.6 25 Este 37 Este 0 1007.5 -0.1 65
2019-07-31 01:00:00 22.9 9 Este 19 Este 0 1006.6 -0.2 58
2019-07-31 00:00:00 21.9 14 Este 17 Este 0 1007.2 1.4 67
2019-07-30 23:00:00 21.2 0 Calma 11 Sudeste 0 1007.6 2 72
2019-07-30 22:00:00 21.8 6 Sudeste 14 Sudeste 0 1006.8 0.6 70
2019-07-30 21:00:00 22.9 5 Sur 12 Sur 0 1005.8 -1 74
2019-07-30 20:00:00 24.9 6 Sudoeste 14 Sudoeste 0 1005.6 -1.5 57
2019-07-30 19:00:00 25.1 8 Sudoeste 18 Sudoeste 0 1006.2 -1.6 58
2019-07-30 18:00:00 24.8 10 Sudoeste 22 Sudoeste 0 1006.8 -1.3 59
2019-07-30 17:00:00 23.9 11 Sudoeste 25 Sudoeste 0 1007.1 -1.4 65
2019-07-30 16:00:00 23.1 14 Oeste 28 Oeste 0 1007.8 -1.3 70
2019-07-30 15:00:00 22.7 14 Oeste 28 Oeste 0 1008.1 -1.2 68
2019-07-30 14:00:00 22.7 19 Oeste 28 Oeste 0 1008.5 -0.8 62
2019-07-30 13:00:00 22.3 16 Oeste 26 Oeste 0 1009.1 -0.3 59
2019-07-30 12:00:00 22.2 11 Oeste 23 Oeste 0 1009.3 0.4 60
2019-07-30 11:00:00 21.1 13 Oeste 21 Oeste 0 1009.3 0.6 73
2019-07-30 10:00:00 20.7 12 Oeste 19 Oeste 0 1009.4 1.1 68
2019-07-30 09:00:00 20.2 8 Oeste 22 Oeste 0 1008.9 0.5 78
2019-07-30 08:00:00 19.4 15 Sudoeste 29 Sudoeste 0 1008.7 0.3 90
2019-07-30 07:00:00 19.3 10 Oeste 20 Oeste 0 1008.3 0.1 90
2019-07-30 06:00:00 19.3 6 Oeste 21 Oeste 0 1008.4 0.2 92
2019-07-30 05:00:00 19.6 11 Oeste 22 Oeste 0 1008.4 -0.2 89
2019-07-30 04:00:00 20.1 15 Oeste 24 Oeste 0 1008.2 -0.5 92
2019-07-30 03:00:00 20.2 17 Oeste 24 Noroeste 0 1008.2 -0.6 91
2019-07-30 02:00:00 19.8 13 Noroeste 21 Oeste 0 1008.6 0.1 89
2019-07-30 01:00:00 20.3 11 Oeste 22 Oeste 0 1008.7 1.2 89
2019-07-30 00:00:00 20.1 10 Noroeste 23 Oeste 0 1008.8 1.6 88
2019-07-29 23:00:00 20.1 11 Oeste 27 Oeste 0 1008.5 1.3 87
2019-07-29 22:00:00 20.5 13 Oeste 32 Oeste 0 1007.5 -0.1 87
2019-07-29 21:00:00 21.3 18 Oeste 32 Oeste 0 1007.2 -0.6 83
2019-07-29 20:00:00 22.2 18 Oeste 34 Sudoeste 0 1007.2 -0.9 80
2019-07-29 19:00:00 22.4 20 Oeste 35 Oeste 0 1007.6 -0.8 75
2019-07-29 18:00:00 22.4 20 Sudoeste 35 Sudoeste 0 1007.8 -1 70
2019-07-29 17:00:00 23.1 18 Oeste 35 Oeste 0 1008.1 -1 69
2019-07-29 16:00:00 23.3 18 Oeste 31 Sudoeste 0 1008.4 -1.2 70
2019-07-29 15:00:00 23.4 18 Oeste 33 Sudoeste 0 1008.8 -0.6 70
2019-07-29 14:00:00 22.8 24 Oeste 35 Oeste 0 1009.1 -0.2 74
2019-07-29 13:00:00 22.8 18 Oeste 32 Sudoeste 0 1009.6 0.5 72
2019-07-29 12:00:00 22.4 17 Sudoeste 30 Sudoeste 0 1009.4 0.7 74
2019-07-29 11:00:00 21.3 20 Sudoeste 31 Sudoeste 0 1009.3 1 78
2019-07-29 10:00:00 20.7 13 Sudoeste 21 Sudoeste 0 1009.1 1.3 79
2019-07-29 09:00:00 19.8 12 Sudoeste 19 Sudoeste 0 1008.7 1.2 82
2019-07-29 08:00:00 19.3 12 Sudoeste 23 Oeste 0 1008.3 1.1 85
2019-07-29 07:00:00 19.3 12 Oeste 21 Oeste 0 1007.8 0.1 86
2019-07-29 06:00:00 18.4 13 Noroeste 17 Noroeste 0 1007.5 -0.5 87
2019-07-29 05:00:00 18.8 11 Noroeste 16 Noroeste 0 1007.2 -0.8 87
2019-07-29 04:00:00 19.1 7 Noroeste 20 Noroeste 0 1007.7 -0.3 87
2019-07-29 03:00:00 19.6 12 Oeste 20 Oeste 0 1008 0 86
2019-07-29 02:00:00 19.6 12 Oeste 20 Oeste 0 1008 0.2 87
2019-07-29 01:00:00 19.6 13 Oeste 22 Oeste 0 1008 1 88
2019-07-29 00:00:00 19.6 15 Oeste 26 Oeste 0 1008 1.8 87
2019-07-28 23:00:00 19.6 18 Oeste 26 Oeste 0 1007.8 1.8 87
2019-07-28 22:00:00 20 18 Oeste 53 Oeste 0 1007 1 86
2019-07-28 21:00:00 20.8 22 Oeste 35 Oeste 0 1006.2 -0.1 82
2019-07-28 20:00:00 21.3 22 Oeste 37 Oeste 0 1006 -1 79
2019-07-28 19:00:00 22 23 Oeste 33 Oeste 0 1006 -1.4 75
2019-07-28 18:00:00 22.3 18 Oeste 35 Oeste 0 1006.3 -1.2 73
2019-07-28 17:00:00 22.7 15 Oeste 31 Oeste 0 1007 -0.7 70
2019-07-28 16:00:00 23 13 Oeste 28 Oeste 0 1007.4 -0.6 69
2019-07-28 15:00:00 22.3 14 Oeste 28 Oeste 0 1007.5 -0.3 72
2019-07-28 14:00:00 22.8 14 Oeste 26 Oeste 0 1007.7 0 69
2019-07-28 13:00:00 22.3 15 Oeste 27 Oeste 0 1008 0.8 75
2019-07-28 12:00:00 22 16 Oeste 29 Oeste 0 1007.8 0.8 76
2019-07-28 11:00:00 21.1 18 Oeste 24 Oeste 0 1007.7 0.8 79
2019-07-28 10:00:00 20.6 17 Oeste 27 Oeste 0 1007.2 0.7 85
2019-07-28 09:00:00 20.1 13 Oeste 26 Oeste 0 1007 0.6 81
2019-07-28 08:00:00 20.1 12 Oeste 26 Noroeste 0 1006.9 -0.1 82
2019-07-28 07:00:00 20.1 14 Noroeste 23 Oeste 0 1006.5 -0.8 81
2019-07-28 06:00:00 20.3 14 Noroeste 21 Oeste 0 1006.4 -1.7 85
2019-07-28 05:00:00 20.1 14 Oeste 25 Oeste 0 1007 -1.4 88
2019-07-28 04:00:00 20.3 14 Oeste 23 Oeste 0 1007.3 -1.3 88
2019-07-28 03:00:00 20.5 13 Oeste 27 Oeste 0 1008.1 -1.1 94
2019-07-28 02:00:00 20.4 17 Oeste 31 Oeste 0 1008.4 -0.6 92
2019-07-28 01:00:00 20.7 20 Oeste 33 Oeste 0 1008.6 0 90
2019-07-28 00:00:00 20.7 17 Sudoeste 31 Sudoeste 0 1009.2 0.7 90
2019-07-27 23:00:00 20.5 16 Sudoeste 28 Oeste 0 1009 0.6 90
2019-07-26 12:00:00 22 20 Oeste 35 Sudoeste 0 1011.6 0.6 82
2019-07-26 11:00:00 21.5 22 Sudoeste 37 Oeste 0 1011.3 0.7 82
2019-07-26 10:00:00 21.1 21 Oeste 32 Sudoeste 0 1011 0.6 82
2019-07-26 09:00:00 20.9 18 Sudoeste 31 Sudoeste 0 1011 0.7 83
2019-07-26 08:00:00 20.8 17 Sudoeste 32 Sudoeste 0 1010.6 0.1 84
2019-07-26 07:00:00 20.8 16 Sudoeste 28 Sudoeste 0 1010.4 -0.3 85
2019-07-26 06:00:00 20.7 18 Sudoeste 29 Oeste 0 1010.3 -0.9 86
2019-07-26 05:00:00 20.9 19 Sudoeste 29 Oeste 0 1010.5 -1 88
2019-07-26 04:00:00 21.1 13 Oeste 24 Sudoeste 0 1010.7 -0.6 89
2019-07-26 03:00:00 20.9 15 Oeste 27 Oeste 0 1011.2 0 90
2019-07-26 02:00:00 21.1 17 Oeste 26 Oeste 0 1011.5 0.6 90
2019-07-26 01:00:00 21.3 18 Oeste 30 Oeste 0 1011.3 1.1 90
2019-07-26 00:00:00 21.5 15 Oeste 24 Oeste 0 1011.2 1.5 89
2019-07-25 23:00:00 21.7 17 Oeste 26 Oeste 0 1010.9 1.6 88
2019-07-25 22:00:00 21.4 17 Oeste 30 Sudoeste 0 1010.2 1.3 90
2019-07-25 21:00:00 22.2 15 Oeste 27 Oeste 0 1009.7 0.3 85
2019-07-25 20:00:00 23.2 17 Oeste 26 Oeste 0 1009.3 -0.1 80
2019-07-25 19:00:00 23.4 15 Oeste 29 Oeste 0 1008.9 -1.2 79
2019-07-25 18:00:00 23.4 20 Oeste 30 Oeste 0 1009.4 -1.1 79
2019-07-25 17:00:00 24.1 17 Oeste 30 Oeste 0 1009.4 -1.2 77
2019-07-25 16:00:00 24.4 13 Oeste 28 Oeste 0 1010.1 -0.7 79
2019-07-25 15:00:00 24.7 14 Oeste 27 Sudoeste 0 1010.5 0.2 75
2019-07-25 14:00:00 24.1 14 Oeste 26 Oeste 0 1010.6 0.6 76
2019-07-25 13:00:00 23.4 16 Oeste 26 Oeste 0 1010.8 1.2 81
2019-07-25 12:00:00 24.4 8 Sudoeste 14 Sudoeste 0 1010.3 1 77
2019-07-25 11:00:00 24.3 7 Sudoeste 13 Este 0 1010 1 79
2019-07-25 10:00:00 24.7 9 Este 15 Este 0 1009.6 1 77
2019-07-25 09:00:00 23 11 Este 18 Este 0 1009.3 0.8 85
2019-07-25 08:00:00 22.1 8 Este 13 Este 0 1009 0.4 89
2019-07-25 07:00:00 22.1 6 Este 16 Este 0 1008.6 0 88
2019-07-25 06:00:00 22.1 10 Este 18 Este 0 1008.5 -0.7 87
2019-07-25 05:00:00 22.3 10 Este 19 Este 0 1008.6 -0.8 86
2019-07-25 04:00:00 22.5 14 Este 21 Este 0 1008.6 -0.8 86
2019-07-25 03:00:00 22.2 15 Este 32 Este 0 1009.2 0.1 88
2019-07-25 02:00:00 22.1 18 Este 30 Este 0 1009.4 1.2 90
2019-07-25 01:00:00 22.1 21 Este 36 Este 0 1009.4 2.3 86
2019-07-25 00:00:00 22.2 21 Este 39 Este 0 1009.1 2.5 84
2019-07-24 23:00:00 22.2 27 Este 49 Este 0 1008.2 1.1 84
2019-07-24 22:00:00 23 36 Este 51 Este 0 1007.1 0.3 83
2019-07-24 21:00:00 22.6 36 Este 53 Este 0 1006.6 -0.9 85
2019-07-24 20:00:00 23.3 33 Este 51 Este 0 1007.1 -1.3 80
2019-07-24 19:00:00 25.5 33 Este 49 Este 0 1006.8 -2 69
2019-07-24 18:00:00 26.5 32 Este 46 Este 0 1007.5 -1.7 67
2019-07-24 17:00:00 27.1 28 Este 45 Este 0 1008.4 -1 65
2019-07-24 16:00:00 27 27 Este 46 Este 0 1008.8 -0.9 67
2019-07-24 15:00:00 25.5 25 Este 42 Este 0 1009.2 -0.6 72
2019-07-24 14:00:00 25.1 23 Este 44 Este 0 1009.4 -0.5 72
2019-07-24 13:00:00 24.3 22 Este 36 Este 0 1009.7 -0.1 78
2019-07-24 12:00:00 23.6 21 Este 33 Este 0 1009.8 0.3 77
2019-07-24 11:00:00 22.9 16 Este 28 Este 0 1009.9 0.7 81
2019-07-24 10:00:00 21.9 14 Este 22 Este 0 1009.8 0.9 89
2019-07-24 09:00:00 21.7 11 Este 17 Este 0 1009.5 0.6 90
2019-07-24 08:00:00 21.9 8 Este 21 Este 0 1009.2 0 90
2019-07-24 07:00:00 22.1 14 Este 22 Este 0 1008.9 -0.6 89
2019-07-24 06:00:00 22.1 12 Este 27 Este 0 1008.9 -0.9 89
2019-07-24 05:00:00 22.5 15 Este 29 Este 0 1009.2 -0.4 87
2019-07-24 04:00:00 22.9 16 Este 28 Este 0 1009.5 -0.5 86
2019-07-24 03:00:00 22.7 18 Este 36 Este 0 1009.8 -0.2 88
2019-07-24 02:00:00 22.5 24 Este 36 Este 0 1009.6 0 87
2019-07-24 01:00:00 22 18 Este 37 Este 0 1010 1.3 91
2019-07-24 00:00:00 21.8 18 Este 39 Este 0 1010 1.6 90
2019-07-23 23:00:00 21.8 22 Este 44 Este 0 1009.6 1.1 90
2019-07-23 22:00:00 22.7 27 Este 44 Este 0 1008.7 0.6 88
2019-07-23 21:00:00 23.2 24 Este 41 Este 0 1008.4 -0.1 84
2019-07-23 20:00:00 24.6 23 Este 47 Este 0 1008.5 -0.6 79
2019-07-23 19:00:00 24.6 36 Este 57 Este 0 1008.1 -1.8 79
2019-07-23 18:00:00 26.3 38 Este 55 Este 0 1008.5 -1.5 74
2019-07-23 17:00:00 27.1 32 Este 91 Este 0 1009.1 -1.5 70
2019-07-23 16:00:00 27.3 29 Este 46 Este 0 1009.9 -0.9 69
2019-07-23 15:00:00 27.6 24 Este 42 Este 0 1010 0.3 65
2019-07-23 14:00:00 27.4 27 Este 43 Este 0 1010.6 0.9 66
2019-07-23 13:00:00 27.9 25 Este 49 Este 0 1010.8 1.4 64
2019-07-23 12:00:00 27 33 Este 55 Este 0 1009.7 0.1 69
2019-07-23 11:00:00 26.7 36 Este 61 Este 0 1009.7 0.2 72
2019-07-23 10:00:00 25.1 33 Este 55 Este 0 1009.4 -0.2 75
2019-07-23 09:00:00 24.5 37 Este 60 Este 0 1009.6 -0.1 80
2019-07-23 08:00:00 24.3 32 Nordeste 54 Este 0 1009.5 -0.6 81
2019-07-23 07:00:00 24 27 Este 46 Este 0 1009.6 -0.4 84
2019-07-23 06:00:00 23.9 24 Este 43 Este 0 1009.7 -0.6 85
2019-07-23 05:00:00 23.8 27 Este 42 Este 0 1010.1 -0.1 85
2019-07-23 04:00:00 23.6 29 Este 50 Este 0 1010 -0.5 86
2019-07-23 03:00:00 23.7 32 Este 55 Este 0 1010.3 -0.7 85
2019-07-23 02:00:00 23.9 37 Este 58 Este 0 1010.2 -0.6 84
2019-07-23 01:00:00 24.3 36 Este 52 Este 0 1010.5 0.7 80
2019-07-23 00:00:00 24.6 31 Este 55 Este 0 1011 1.8 79
2019-07-22 23:00:00 24 29 Este 57 Este 0 1010.8 2.3 82
2019-07-22 22:00:00 24.2 41 Este 61 Este 0 1009.8 1.1 82
2019-07-22 21:00:00 24.4 41 Este 65 Este 0 1009.2 -0.1 80
2019-07-22 20:00:00 25.5 40 Este 66 Este 0 1008.5 -2.1 77
2019-07-22 19:00:00 25.7 43 Este 74 Este 0 1008.7 -2.4 74
2019-07-22 18:00:00 26.9 41 Este 68 Este 0 1009.3 -2.1 71
2019-07-22 17:00:00 27.1 39 Este 67 Este 0 1010.6 -1 69
2019-07-22 16:00:00 27.1 48 Este 69 Este 0 1011.1 -1.1 68
2019-07-22 15:00:00 27.2 44 Este 67 Este 0 1011.4 -0.9 67
2019-07-22 14:00:00 27 46 Este 71 Este 0 1011.6 -0.1 69
2019-07-22 13:00:00 27 45 Este 71 Nordeste 0 1012.2 0.7 73
2019-07-22 12:00:00 25.9 44 Este 69 Este 0 1012.3 0.5 77
2019-07-22 11:00:00 25.6 43 Este 65 Este 0 1011.7 0.2 79
2019-07-22 10:00:00 25 44 Este 68 Este 0 1011.5 -0.1 79
2019-07-22 09:00:00 24.1 41 Este 59 Este 0 1011.8 0.3 84
2019-07-22 08:00:00 24.3 36 Este 54 Este 0 1011.5 -0.2 83
2019-07-22 07:00:00 23.8 35 Este 51 Este 0 1011.6 -0.5 85
2019-07-22 06:00:00 23.1 32 Este 48 Nordeste 0 1011.5 -0.9 89
2019-07-22 05:00:00 23.4 30 Este 53 Este 0 1011.7 -0.6 89
2019-07-22 04:00:00 23.5 33 Este 48 Este 0 1012.1 -0.5 88
2019-07-22 03:00:00 24.4 26 Este 48 Este 0 1012.4 -0.1 82
2019-07-22 02:00:00 24.6 29 Nordeste 53 Nordeste 0 1012.3 -0.3 80
2019-07-22 01:00:00 24.6 29 Nordeste 50 Nordeste 0 1012.6 0.9 79
2019-07-22 00:00:00 24.5 28 Nordeste 47 Este 0 1012.5 1.3 78
2019-07-21 23:00:00 23.9 26 Nordeste 47 Nordeste 0 1012.6 2.2 74
2019-07-21 22:00:00 23.1 29 Este 46 Este 0 1011.7 1.7 80
2019-07-21 21:00:00 23.6 22 Nordeste 40 Este 0 1011.2 0.8 84
2019-07-21 20:00:00 24.6 25 Este 45 Este 0 1010.4 -0.9 80
2019-07-21 19:00:00 25.3 28 Este 46 Este 0 1010 -1.7 77
2019-07-21 18:00:00 26.1 32 Este 50 Este 0 1010.4 -1.7 75
2019-07-21 17:00:00 27.2 26 Este 39 Este 0 1011.3 -1 71
2019-07-21 16:00:00 27.3 27 Este 41 Este 0 1011.7 -1 69
2019-07-21 15:00:00 27.6 27 Este 39 Este 0 1012.1 -0.6 65
2019-07-21 14:00:00 27.7 23 Este 35 Este 0 1012.3 0 65
2019-07-21 13:00:00 27.6 18 Este 27 Nordeste 0 1012.7 0.7 65
2019-07-21 12:00:00 24.1 19 Este 24 Este 0 1012.7 0.6 75
2019-07-21 11:00:00 23.9 6 Oeste 15 Oeste 0 1012.3 0.6 77
2019-07-21 10:00:00 22.6 10 Oeste 14 Oeste 0 1012 0.7 83
2019-07-21 09:00:00 21.8 7 Noroeste 11 Noroeste 0 1012.1 0.9 88
2019-07-21 08:00:00 21 4 Noroeste 14 Noroeste 0 1011.7 0.8 93
2019-07-21 07:00:00 20.7 9 Noroeste 18 Noroeste 0 1011.3 0.2 94
2019-07-21 06:00:00 20.4 10 Noroeste 15 Noroeste 0 1011.2 -0.1 92
2019-07-21 05:00:00 23.4 7 Nordeste 20 Este 0 1010.9 -0.6 76
2019-07-21 04:00:00 23.1 16 Este 32 Este 0 1011.1 -0.2 76
2019-07-21 03:00:00 24.3 21 Este 33 Este 0 1011.3 0.4 73
2019-07-21 02:00:00 24.4 22 Este 39 Este 0 1011.5 1 72
2019-07-21 01:00:00 24.6 22 Este 39 Este 0 1011.3 1.6 72
2019-07-21 00:00:00 24.8 23 Este 33 Nordeste 0 1010.9 1.7 71